sensor_id;sensor_type;location;lat;lon;timestamp;P1;durP1;ratioP1;P2;durP2;ratioP2
75732;SDS011;73508;47.450;19.128;2024-01-30T00:01:52;30.33;;;14.47;;
75732;SDS011;73508;47.450;19.128;2024-01-30T00:04:17;33.43;;;13.83;;
75732;SDS011;73508;47.450;19.128;2024-01-30T00:06:46;38.50;;;14.40;;
75732;SDS011;73508;47.450;19.128;2024-01-30T00:09:11;29.60;;;13.38;;
75732;SDS011;73508;47.450;19.128;2024-01-30T00:11:37;32.37;;;13.87;;
75732;SDS011;73508;47.450;19.128;2024-01-30T00:14:03;31.17;;;13.02;;
75732;SDS011;73508;47.450;19.128;2024-01-30T00:16:29;29.77;;;12.97;;
75732;SDS011;73508;47.450;19.128;2024-01-30T00:18:54;53.05;;;17.60;;
75732;SDS011;73508;47.450;19.128;2024-01-30T00:21:20;56.50;;;18.57;;
75732;SDS011;73508;47.450;19.128;2024-01-30T00:23:45;53.53;;;19.53;;
75732;SDS011;73508;47.450;19.128;2024-01-30T00:26:11;70.32;;;22.37;;
75732;SDS011;73508;47.450;19.128;2024-01-30T00:28:39;74.00;;;24.00;;
75732;SDS011;73508;47.450;19.128;2024-01-30T00:31:04;102.32;;;28.35;;
75732;SDS011;73508;47.450;19.128;2024-01-30T00:33:30;72.47;;;23.03;;
75732;SDS011;73508;47.450;19.128;2024-01-30T00:35:55;63.33;;;22.63;;
75732;SDS011;73508;47.450;19.128;2024-01-30T00:38:21;69.30;;;23.23;;
75732;SDS011;73508;47.450;19.128;2024-01-30T00:40:46;63.55;;;21.33;;
75732;SDS011;73508;47.450;19.128;2024-01-30T00:43:12;45.20;;;17.87;;
75732;SDS011;73508;47.450;19.128;2024-01-30T00:45:37;39.20;;;16.23;;
75732;SDS011;73508;47.450;19.128;2024-01-30T00:48:03;42.50;;;18.07;;
75732;SDS011;73508;47.450;19.128;2024-01-30T00:50:29;38.95;;;16.02;;
75732;SDS011;73508;47.450;19.128;2024-01-30T00:52:54;36.90;;;16.13;;
75732;SDS011;73508;47.450;19.128;2024-01-30T00:55:19;35.87;;;15.40;;
75732;SDS011;73508;47.450;19.128;2024-01-30T00:57:45;39.70;;;16.97;;
75732;SDS011;73508;47.450;19.128;2024-01-30T01:00:10;35.20;;;15.93;;
75732;SDS011;73508;47.450;19.128;2024-01-30T01:02:37;37.97;;;16.10;;
75732;SDS011;73508;47.450;19.128;2024-01-30T01:05:04;37.03;;;16.07;;
75732;SDS011;73508;47.450;19.128;2024-01-30T01:07:29;43.53;;;16.42;;
75732;SDS011;73508;47.450;19.128;2024-01-30T01:09:55;36.97;;;16.60;;
75732;SDS011;73508;47.450;19.128;2024-01-30T01:12:20;36.10;;;17.50;;
75732;SDS011;73508;47.450;19.128;2024-01-30T01:14:45;45.47;;;17.70;;
75732;SDS011;73508;47.450;19.128;2024-01-30T01:17:11;42.00;;;19.53;;
75732;SDS011;73508;47.450;19.128;2024-01-30T01:19:36;48.87;;;21.37;;
75732;SDS011;73508;47.450;19.128;2024-01-30T01:22:02;42.80;;;19.13;;
75732;SDS011;73508;47.450;19.128;2024-01-30T01:24:28;46.40;;;20.02;;
75732;SDS011;73508;47.450;19.128;2024-01-30T01:26:54;43.00;;;17.43;;
75732;SDS011;73508;47.450;19.128;2024-01-30T01:29:19;40.85;;;17.90;;
75732;SDS011;73508;47.450;19.128;2024-01-30T01:31:45;42.40;;;18.43;;
75732;SDS011;73508;47.450;19.128;2024-01-30T01:34:11;48.08;;;18.95;;
75732;SDS011;73508;47.450;19.128;2024-01-30T01:36:37;39.23;;;17.70;;
75732;SDS011;73508;47.450;19.128;2024-01-30T01:39:02;37.60;;;18.13;;
75732;SDS011;73508;47.450;19.128;2024-01-30T01:41:34;41.65;;;19.48;;
75732;SDS011;73508;47.450;19.128;2024-01-30T01:44:00;35.10;;;16.70;;
75732;SDS011;73508;47.450;19.128;2024-01-30T01:46:29;35.30;;;17.13;;
75732;SDS011;73508;47.450;19.128;2024-01-30T01:48:55;41.67;;;18.10;;
75732;SDS011;73508;47.450;19.128;2024-01-30T01:51:21;40.15;;;18.85;;
75732;SDS011;73508;47.450;19.128;2024-01-30T01:53:48;40.05;;;18.58;;
75732;SDS011;73508;47.450;19.128;2024-01-30T01:56:13;40.80;;;17.57;;
75732;SDS011;73508;47.450;19.128;2024-01-30T01:58:39;34.03;;;16.63;;
75732;SDS011;73508;47.450;19.128;2024-01-30T02:03:40;32.80;;;15.38;;
75732;SDS011;73508;47.450;19.128;2024-01-30T02:06:06;35.97;;;15.47;;
75732;SDS011;73508;47.450;19.128;2024-01-30T02:08:31;27.90;;;13.13;;
75732;SDS011;73508;47.450;19.128;2024-01-30T02:10:57;27.95;;;13.35;;
75732;SDS011;73508;47.450;19.128;2024-01-30T02:13:22;37.23;;;16.67;;
75732;SDS011;73508;47.450;19.128;2024-01-30T02:15:51;39.07;;;17.30;;
75732;SDS011;73508;47.450;19.128;2024-01-30T02:18:16;34.63;;;16.52;;
75732;SDS011;73508;47.450;19.128;2024-01-30T02:20:44;40.63;;;16.83;;
75732;SDS011;73508;47.450;19.128;2024-01-30T02:23:10;37.83;;;17.13;;
75732;SDS011;73508;47.450;19.128;2024-01-30T02:25:38;38.90;;;16.40;;
75732;SDS011;73508;47.450;19.128;2024-01-30T02:28:09;35.38;;;17.65;;
75732;SDS011;73508;47.450;19.128;2024-01-30T02:30:35;39.40;;;18.00;;
75732;SDS011;73508;47.450;19.128;2024-01-30T02:33:01;38.50;;;16.73;;
75732;SDS011;73508;47.450;19.128;2024-01-30T02:35:26;32.43;;;16.47;;
75732;SDS011;73508;47.450;19.128;2024-01-30T02:37:51;37.53;;;17.90;;
75732;SDS011;73508;47.450;19.128;2024-01-30T02:40:17;37.10;;;16.43;;
75732;SDS011;73508;47.450;19.128;2024-01-30T02:42:42;37.78;;;16.27;;
75732;SDS011;73508;47.450;19.128;2024-01-30T02:45:08;41.20;;;17.43;;
75732;SDS011;73508;47.450;19.128;2024-01-30T02:47:34;35.42;;;15.55;;
75732;SDS011;73508;47.450;19.128;2024-01-30T02:49:59;37.10;;;16.03;;
75732;SDS011;73508;47.450;19.128;2024-01-30T02:52:25;36.13;;;16.43;;
75732;SDS011;73508;47.450;19.128;2024-01-30T02:54:50;30.87;;;13.33;;
75732;SDS011;73508;47.450;19.128;2024-01-30T02:57:15;39.70;;;17.67;;
75732;SDS011;73508;47.450;19.128;2024-01-30T02:59:41;35.40;;;15.90;;
75732;SDS011;73508;47.450;19.128;2024-01-30T03:02:06;36.85;;;16.92;;
75732;SDS011;73508;47.450;19.128;2024-01-30T03:04:32;41.80;;;17.33;;
75732;SDS011;73508;47.450;19.128;2024-01-30T03:06:57;35.90;;;15.33;;
75732;SDS011;73508;47.450;19.128;2024-01-30T03:09:23;48.20;;;19.90;;
75732;SDS011;73508;47.450;19.128;2024-01-30T03:11:48;34.80;;;17.30;;
75732;SDS011;73508;47.450;19.128;2024-01-30T03:14:13;36.27;;;17.13;;
75732;SDS011;73508;47.450;19.128;2024-01-30T03:16:39;31.97;;;15.97;;
75732;SDS011;73508;47.450;19.128;2024-01-30T03:19:05;32.83;;;15.60;;
75732;SDS011;73508;47.450;19.128;2024-01-30T03:21:32;35.70;;;17.10;;
75732;SDS011;73508;47.450;19.128;2024-01-30T03:23:58;36.13;;;17.03;;
75732;SDS011;73508;47.450;19.128;2024-01-30T03:26:24;39.75;;;16.62;;
75732;SDS011;73508;47.450;19.128;2024-01-30T03:28:50;42.40;;;17.42;;
75732;SDS011;73508;47.450;19.128;2024-01-30T03:31:15;35.07;;;16.40;;
75732;SDS011;73508;47.450;19.128;2024-01-30T03:33:41;39.37;;;17.23;;
75732;SDS011;73508;47.450;19.128;2024-01-30T03:36:06;37.07;;;17.33;;
75732;SDS011;73508;47.450;19.128;2024-01-30T03:38:32;47.70;;;17.70;;
75732;SDS011;73508;47.450;19.128;2024-01-30T03:40:58;42.40;;;17.63;;
75732;SDS011;73508;47.450;19.128;2024-01-30T03:43:24;42.40;;;18.83;;
75732;SDS011;73508;47.450;19.128;2024-01-30T03:45:49;39.93;;;18.47;;
75732;SDS011;73508;47.450;19.128;2024-01-30T03:48:14;33.80;;;16.30;;
75732;SDS011;73508;47.450;19.128;2024-01-30T03:50:40;34.25;;;16.62;;
75732;SDS011;73508;47.450;19.128;2024-01-30T03:53:05;39.17;;;16.97;;
75732;SDS011;73508;47.450;19.128;2024-01-30T03:55:30;41.27;;;17.00;;
75732;SDS011;73508;47.450;19.128;2024-01-30T03:57:56;40.10;;;17.73;;
75732;SDS011;73508;47.450;19.128;2024-01-30T04:00:21;42.97;;;17.53;;
75732;SDS011;73508;47.450;19.128;2024-01-30T04:02:46;38.17;;;16.60;;
75732;SDS011;73508;47.450;19.128;2024-01-30T04:05:12;37.13;;;17.10;;
75732;SDS011;73508;47.450;19.128;2024-01-30T04:07:37;38.43;;;17.93;;
75732;SDS011;73508;47.450;19.128;2024-01-30T04:10:02;33.93;;;16.13;;
75732;SDS011;73508;47.450;19.128;2024-01-30T04:12:30;33.15;;;16.37;;
75732;SDS011;73508;47.450;19.128;2024-01-30T04:14:56;36.13;;;17.35;;
75732;SDS011;73508;47.450;19.128;2024-01-30T04:17:21;35.87;;;16.47;;
75732;SDS011;73508;47.450;19.128;2024-01-30T04:19:46;38.20;;;18.50;;
75732;SDS011;73508;47.450;19.128;2024-01-30T04:22:12;37.07;;;18.43;;
75732;SDS011;73508;47.450;19.128;2024-01-30T04:24:37;37.83;;;16.37;;
75732;SDS011;73508;47.450;19.128;2024-01-30T04:27:02;41.43;;;18.27;;
75732;SDS011;73508;47.450;19.128;2024-01-30T04:29:28;33.78;;;15.30;;
75732;SDS011;73508;47.450;19.128;2024-01-30T04:31:53;31.10;;;15.60;;
75732;SDS011;73508;47.450;19.128;2024-01-30T04:34:19;31.20;;;14.63;;
75732;SDS011;73508;47.450;19.128;2024-01-30T04:36:44;32.47;;;15.97;;
75732;SDS011;73508;47.450;19.128;2024-01-30T04:39:10;37.88;;;16.70;;
75732;SDS011;73508;47.450;19.128;2024-01-30T04:44:24;38.78;;;15.55;;
75732;SDS011;73508;47.450;19.128;2024-01-30T04:46:49;37.23;;;16.27;;
75732;SDS011;73508;47.450;19.128;2024-01-30T04:49:15;38.43;;;14.43;;
75732;SDS011;73508;47.450;19.128;2024-01-30T04:51:40;33.87;;;17.07;;
75732;SDS011;73508;47.450;19.128;2024-01-30T04:54:05;36.10;;;15.77;;
75732;SDS011;73508;47.450;19.128;2024-01-30T04:56:31;37.20;;;16.07;;
75732;SDS011;73508;47.450;19.128;2024-01-30T04:58:56;33.43;;;15.67;;
75732;SDS011;73508;47.450;19.128;2024-01-30T05:01:30;37.90;;;17.10;;
75732;SDS011;73508;47.450;19.128;2024-01-30T05:04:12;35.55;;;17.02;;
75732;SDS011;73508;47.450;19.128;2024-01-30T05:06:43;38.80;;;16.67;;
75732;SDS011;73508;47.450;19.128;2024-01-30T05:09:17;36.10;;;15.93;;
75732;SDS011;73508;47.450;19.128;2024-01-30T05:11:43;36.67;;;16.62;;
75732;SDS011;73508;47.450;19.128;2024-01-30T05:14:09;42.50;;;18.50;;
75732;SDS011;73508;47.450;19.128;2024-01-30T05:16:38;36.85;;;16.92;;
75732;SDS011;73508;47.450;19.128;2024-01-30T05:19:12;37.15;;;17.17;;
75732;SDS011;73508;47.450;19.128;2024-01-30T05:21:43;37.53;;;16.67;;
75732;SDS011;73508;47.450;19.128;2024-01-30T05:24:09;39.33;;;16.53;;
75732;SDS011;73508;47.450;19.128;2024-01-30T05:26:35;35.50;;;16.77;;
75732;SDS011;73508;47.450;19.128;2024-01-30T05:29:00;35.20;;;15.60;;
75732;SDS011;73508;47.450;19.128;2024-01-30T05:31:26;33.87;;;16.57;;
75732;SDS011;73508;47.450;19.128;2024-01-30T05:33:52;33.33;;;16.95;;
75732;SDS011;73508;47.450;19.128;2024-01-30T05:36:17;37.00;;;15.27;;
75732;SDS011;73508;47.450;19.128;2024-01-30T05:38:42;36.20;;;17.37;;
75732;SDS011;73508;47.450;19.128;2024-01-30T05:41:08;33.78;;;15.30;;
75732;SDS011;73508;47.450;19.128;2024-01-30T05:43:34;35.92;;;15.77;;
75732;SDS011;73508;47.450;19.128;2024-01-30T05:45:59;39.70;;;18.90;;
75732;SDS011;73508;47.450;19.128;2024-01-30T05:48:25;39.47;;;16.83;;
75732;SDS011;73508;47.450;19.128;2024-01-30T05:50:51;38.83;;;18.03;;
75732;SDS011;73508;47.450;19.128;2024-01-30T05:53:16;40.33;;;17.93;;
75732;SDS011;73508;47.450;19.128;2024-01-30T05:55:41;37.53;;;16.30;;
75732;SDS011;73508;47.450;19.128;2024-01-30T05:58:07;39.23;;;17.20;;
75732;SDS011;73508;47.450;19.128;2024-01-30T06:00:32;37.90;;;17.23;;
75732;SDS011;73508;47.450;19.128;2024-01-30T06:02:57;33.83;;;16.50;;
75732;SDS011;73508;47.450;19.128;2024-01-30T06:05:23;35.37;;;16.60;;
75732;SDS011;73508;47.450;19.128;2024-01-30T06:07:48;43.27;;;18.10;;
75732;SDS011;73508;47.450;19.128;2024-01-30T06:10:13;36.73;;;15.80;;
75732;SDS011;73508;47.450;19.128;2024-01-30T06:12:39;38.90;;;16.27;;
75732;SDS011;73508;47.450;19.128;2024-01-30T06:15:04;41.05;;;17.92;;
75732;SDS011;73508;47.450;19.128;2024-01-30T06:17:31;35.67;;;17.53;;
75732;SDS011;73508;47.450;19.128;2024-01-30T06:19:56;39.30;;;18.23;;
75732;SDS011;73508;47.450;19.128;2024-01-30T06:22:22;39.50;;;17.80;;
75732;SDS011;73508;47.450;19.128;2024-01-30T06:24:47;39.97;;;17.67;;
75732;SDS011;73508;47.450;19.128;2024-01-30T06:27:13;41.85;;;17.60;;
75732;SDS011;73508;47.450;19.128;2024-01-30T06:29:39;45.40;;;20.27;;
75732;SDS011;73508;47.450;19.128;2024-01-30T06:32:05;39.80;;;19.20;;
75732;SDS011;73508;47.450;19.128;2024-01-30T06:34:31;41.35;;;19.23;;
75732;SDS011;73508;47.450;19.128;2024-01-30T06:36:56;46.27;;;20.07;;
75732;SDS011;73508;47.450;19.128;2024-01-30T06:39:21;48.03;;;20.57;;
75732;SDS011;73508;47.450;19.128;2024-01-30T06:41:47;44.80;;;22.00;;
75732;SDS011;73508;47.450;19.128;2024-01-30T06:44:12;59.03;;;23.50;;
75732;SDS011;73508;47.450;19.128;2024-01-30T06:46:38;49.95;;;19.80;;
75732;SDS011;73508;47.450;19.128;2024-01-30T06:49:04;57.20;;;25.50;;
75732;SDS011;73508;47.450;19.128;2024-01-30T06:51:29;54.28;;;25.30;;
75732;SDS011;73508;47.450;19.128;2024-01-30T06:53:55;54.77;;;24.27;;
75732;SDS011;73508;47.450;19.128;2024-01-30T06:56:20;60.53;;;23.43;;
75732;SDS011;73508;47.450;19.128;2024-01-30T06:58:49;55.75;;;23.45;;
75732;SDS011;73508;47.450;19.128;2024-01-30T07:01:14;51.33;;;23.37;;
75732;SDS011;73508;47.450;19.128;2024-01-30T07:03:40;47.17;;;21.60;;
75732;SDS011;73508;47.450;19.128;2024-01-30T07:06:05;51.27;;;22.40;;
75732;SDS011;73508;47.450;19.128;2024-01-30T07:08:31;45.70;;;21.43;;
75732;SDS011;73508;47.450;19.128;2024-01-30T07:10:56;52.47;;;21.45;;
75732;SDS011;73508;47.450;19.128;2024-01-30T07:13:22;46.17;;;22.10;;
75732;SDS011;73508;47.450;19.128;2024-01-30T07:15:47;48.57;;;22.10;;
75732;SDS011;73508;47.450;19.128;2024-01-30T07:18:12;49.57;;;21.20;;
75732;SDS011;73508;47.450;19.128;2024-01-30T07:20:38;49.58;;;20.80;;
75732;SDS011;73508;47.450;19.128;2024-01-30T07:23:11;51.80;;;21.47;;
75732;SDS011;73508;47.450;19.128;2024-01-30T07:25:38;52.45;;;22.15;;
75732;SDS011;73508;47.450;19.128;2024-01-30T07:28:07;51.83;;;22.20;;
75732;SDS011;73508;47.450;19.128;2024-01-30T07:30:35;45.70;;;21.27;;
75732;SDS011;73508;47.450;19.128;2024-01-30T07:33:01;47.80;;;22.40;;
75732;SDS011;73508;47.450;19.128;2024-01-30T07:35:26;45.23;;;21.90;;
75732;SDS011;73508;47.450;19.128;2024-01-30T07:37:51;47.60;;;22.77;;
75732;SDS011;73508;47.450;19.128;2024-01-30T07:40:17;44.10;;;20.55;;
75732;SDS011;73508;47.450;19.128;2024-01-30T07:42:42;46.63;;;21.57;;
75732;SDS011;73508;47.450;19.128;2024-01-30T07:45:08;49.80;;;23.07;;
75732;SDS011;73508;47.450;19.128;2024-01-30T07:47:34;51.28;;;25.05;;
75732;SDS011;73508;47.450;19.128;2024-01-30T07:49:59;53.00;;;24.83;;
75732;SDS011;73508;47.450;19.128;2024-01-30T07:52:24;65.67;;;27.50;;
75732;SDS011;73508;47.450;19.128;2024-01-30T07:54:50;55.93;;;25.60;;
75732;SDS011;73508;47.450;19.128;2024-01-30T07:57:15;56.92;;;27.13;;
75732;SDS011;73508;47.450;19.128;2024-01-30T07:59:42;55.77;;;25.47;;
75732;SDS011;73508;47.450;19.128;2024-01-30T08:02:09;51.45;;;23.90;;
75732;SDS011;73508;47.450;19.128;2024-01-30T08:04:34;51.37;;;22.57;;
75732;SDS011;73508;47.450;19.128;2024-01-30T08:06:59;35.97;;;16.63;;
75732;SDS011;73508;47.450;19.128;2024-01-30T08:09:25;31.20;;;14.65;;
75732;SDS011;73508;47.450;19.128;2024-01-30T08:11:53;35.23;;;15.37;;
75732;SDS011;73508;47.450;19.128;2024-01-30T08:14:18;31.30;;;15.50;;
75732;SDS011;73508;47.450;19.128;2024-01-30T08:16:43;30.10;;;14.93;;
75732;SDS011;73508;47.450;19.128;2024-01-30T08:19:09;36.00;;;15.63;;
75732;SDS011;73508;47.450;19.128;2024-01-30T08:21:34;31.47;;;15.47;;
75732;SDS011;73508;47.450;19.128;2024-01-30T08:24:02;29.42;;;15.05;;
75732;SDS011;73508;47.450;19.128;2024-01-30T08:26:28;32.38;;;16.05;;
75732;SDS011;73508;47.450;19.128;2024-01-30T08:28:54;34.23;;;16.53;;
75732;SDS011;73508;47.450;19.128;2024-01-30T08:31:19;36.70;;;16.80;;
75732;SDS011;73508;47.450;19.128;2024-01-30T08:33:44;32.50;;;15.63;;
75732;SDS011;73508;47.450;19.128;2024-01-30T08:36:09;35.57;;;15.87;;
75732;SDS011;73508;47.450;19.128;2024-01-30T08:38:35;37.03;;;16.20;;
75732;SDS011;73508;47.450;19.128;2024-01-30T08:41:00;28.47;;;14.53;;
75732;SDS011;73508;47.450;19.128;2024-01-30T08:43:25;31.77;;;15.37;;
75732;SDS011;73508;47.450;19.128;2024-01-30T08:45:51;34.07;;;15.60;;
75732;SDS011;73508;47.450;19.128;2024-01-30T08:48:16;29.00;;;13.83;;
75732;SDS011;73508;47.450;19.128;2024-01-30T08:50:42;29.48;;;12.98;;
75732;SDS011;73508;47.450;19.128;2024-01-30T08:53:08;27.77;;;13.70;;
75732;SDS011;73508;47.450;19.128;2024-01-30T08:55:33;27.13;;;12.80;;
75732;SDS011;73508;47.450;19.128;2024-01-30T08:57:58;25.67;;;13.20;;
75732;SDS011;73508;47.450;19.128;2024-01-30T09:00:24;25.77;;;12.98;;
75732;SDS011;73508;47.450;19.128;2024-01-30T09:02:49;27.63;;;11.63;;
75732;SDS011;73508;47.450;19.128;2024-01-30T09:05:15;26.90;;;13.00;;
75732;SDS011;73508;47.450;19.128;2024-01-30T09:07:40;26.23;;;12.93;;
75732;SDS011;73508;47.450;19.128;2024-01-30T09:10:06;26.90;;;13.30;;
75732;SDS011;73508;47.450;19.128;2024-01-30T09:12:31;30.37;;;14.05;;
75732;SDS011;73508;47.450;19.128;2024-01-30T09:14:57;28.80;;;14.07;;
75732;SDS011;73508;47.450;19.128;2024-01-30T09:17:22;24.97;;;13.63;;
75732;SDS011;73508;47.450;19.128;2024-01-30T09:19:47;26.77;;;12.43;;
75732;SDS011;73508;47.450;19.128;2024-01-30T09:22:13;29.98;;;14.30;;
75732;SDS011;73508;47.450;19.128;2024-01-30T09:24:38;26.03;;;13.13;;
75732;SDS011;73508;47.450;19.128;2024-01-30T09:27:03;27.83;;;13.20;;
75732;SDS011;73508;47.450;19.128;2024-01-30T09:29:29;25.57;;;13.23;;
75732;SDS011;73508;47.450;19.128;2024-01-30T09:31:54;30.60;;;14.10;;
75732;SDS011;73508;47.450;19.128;2024-01-30T09:34:20;29.65;;;14.00;;
75732;SDS011;73508;47.450;19.128;2024-01-30T09:36:45;32.80;;;14.33;;
75732;SDS011;73508;47.450;19.128;2024-01-30T09:39:11;31.20;;;14.47;;
75732;SDS011;73508;47.450;19.128;2024-01-30T09:41:48;31.90;;;15.27;;
75732;SDS011;73508;47.450;19.128;2024-01-30T09:44:18;27.83;;;13.68;;
75732;SDS011;73508;47.450;19.128;2024-01-30T09:46:46;30.48;;;15.63;;
75732;SDS011;73508;47.450;19.128;2024-01-30T09:49:13;36.15;;;15.00;;
75732;SDS011;73508;47.450;19.128;2024-01-30T09:51:39;29.55;;;14.25;;
75732;SDS011;73508;47.450;19.128;2024-01-30T09:54:05;31.27;;;13.83;;
75732;SDS011;73508;47.450;19.128;2024-01-30T09:56:32;28.10;;;14.02;;
75732;SDS011;73508;47.450;19.128;2024-01-30T09:58:57;28.40;;;12.60;;
75732;SDS011;73508;47.450;19.128;2024-01-30T10:01:23;28.63;;;13.50;;
75732;SDS011;73508;47.450;19.128;2024-01-30T10:03:50;30.52;;;14.43;;
75732;SDS011;73508;47.450;19.128;2024-01-30T10:06:17;29.70;;;14.68;;
75732;SDS011;73508;47.450;19.128;2024-01-30T10:08:43;29.63;;;14.20;;
75732;SDS011;73508;47.450;19.128;2024-01-30T10:11:08;28.50;;;15.27;;
75732;SDS011;73508;47.450;19.128;2024-01-30T10:13:34;27.63;;;14.50;;
75732;SDS011;73508;47.450;19.128;2024-01-30T10:15:59;29.07;;;14.57;;
75732;SDS011;73508;47.450;19.128;2024-01-30T10:18:27;36.50;;;14.90;;
75732;SDS011;73508;47.450;19.128;2024-01-30T10:20:52;27.47;;;14.53;;
75732;SDS011;73508;47.450;19.128;2024-01-30T10:23:18;28.40;;;14.65;;
75732;SDS011;73508;47.450;19.128;2024-01-30T10:25:44;32.37;;;14.37;;
75732;SDS011;73508;47.450;19.128;2024-01-30T10:28:10;29.02;;;14.65;;
75732;SDS011;73508;47.450;19.128;2024-01-30T10:30:35;27.80;;;13.90;;
75732;SDS011;73508;47.450;19.128;2024-01-30T10:33:00;28.80;;;14.00;;
75732;SDS011;73508;47.450;19.128;2024-01-30T10:35:27;30.23;;;13.80;;
75732;SDS011;73508;47.450;19.128;2024-01-30T10:37:52;25.13;;;13.03;;
75732;SDS011;73508;47.450;19.128;2024-01-30T10:40:18;27.75;;;13.50;;
75732;SDS011;73508;47.450;19.128;2024-01-30T10:42:46;29.07;;;12.90;;
75732;SDS011;73508;47.450;19.128;2024-01-30T10:45:12;25.95;;;11.65;;
75732;SDS011;73508;47.450;19.128;2024-01-30T10:47:52;19.83;;;9.90;;
75732;SDS011;73508;47.450;19.128;2024-01-30T10:50:21;22.33;;;10.93;;
75732;SDS011;73508;47.450;19.128;2024-01-30T10:52:49;20.95;;;10.65;;
75732;SDS011;73508;47.450;19.128;2024-01-30T10:55:15;22.55;;;10.68;;
75732;SDS011;73508;47.450;19.128;2024-01-30T10:57:41;20.45;;;10.73;;
75732;SDS011;73508;47.450;19.128;2024-01-30T11:00:10;19.40;;;10.70;;
75732;SDS011;73508;47.450;19.128;2024-01-30T11:02:45;21.02;;;10.50;;
75732;SDS011;73508;47.450;19.128;2024-01-30T11:05:11;18.67;;;10.20;;
75732;SDS011;73508;47.450;19.128;2024-01-30T11:07:38;20.52;;;10.18;;
75732;SDS011;73508;47.450;19.128;2024-01-30T11:10:04;20.75;;;10.23;;
75732;SDS011;73508;47.450;19.128;2024-01-30T11:12:32;23.10;;;10.95;;
75732;SDS011;73508;47.450;19.128;2024-01-30T11:15:05;22.43;;;10.20;;
75732;SDS011;73508;47.450;19.128;2024-01-30T11:20:16;23.67;;;10.35;;
75732;SDS011;73508;47.450;19.128;2024-01-30T11:22:45;21.52;;;11.15;;
75732;SDS011;73508;47.450;19.128;2024-01-30T11:25:11;22.62;;;10.80;;
75732;SDS011;73508;47.450;19.128;2024-01-30T11:27:37;21.07;;;10.23;;
75732;SDS011;73508;47.450;19.128;2024-01-30T11:30:03;18.40;;;9.43;;
75732;SDS011;73508;47.450;19.128;2024-01-30T11:32:28;24.10;;;11.00;;
75732;SDS011;73508;47.450;19.128;2024-01-30T11:34:54;21.23;;;10.90;;
75732;SDS011;73508;47.450;19.128;2024-01-30T11:37:20;24.00;;;11.30;;
75732;SDS011;73508;47.450;19.128;2024-01-30T11:39:46;21.70;;;11.43;;
75732;SDS011;73508;47.450;19.128;2024-01-30T11:42:13;22.02;;;11.57;;
75732;SDS011;73508;47.450;19.128;2024-01-30T11:44:38;22.50;;;10.47;;
75732;SDS011;73508;47.450;19.128;2024-01-30T11:47:04;20.55;;;10.20;;
75732;SDS011;73508;47.450;19.128;2024-01-30T11:49:29;19.70;;;9.67;;
75732;SDS011;73508;47.450;19.128;2024-01-30T11:51:54;19.30;;;10.23;;
75732;SDS011;73508;47.450;19.128;2024-01-30T11:54:20;20.40;;;10.17;;
75732;SDS011;73508;47.450;19.128;2024-01-30T11:56:45;21.47;;;10.20;;
75732;SDS011;73508;47.450;19.128;2024-01-30T11:59:10;19.52;;;10.52;;
75732;SDS011;73508;47.450;19.128;2024-01-30T12:01:36;22.50;;;11.23;;
75732;SDS011;73508;47.450;19.128;2024-01-30T12:04:01;22.17;;;10.40;;
75732;SDS011;73508;47.450;19.128;2024-01-30T12:06:28;17.12;;;9.63;;
75732;SDS011;73508;47.450;19.128;2024-01-30T12:09:01;19.53;;;9.17;;
75732;SDS011;73508;47.450;19.128;2024-01-30T12:11:29;17.87;;;9.13;;
75732;SDS011;73508;47.450;19.128;2024-01-30T12:13:55;15.00;;;8.60;;
75732;SDS011;73508;47.450;19.128;2024-01-30T12:16:20;15.67;;;8.87;;
75732;SDS011;73508;47.450;19.128;2024-01-30T12:18:46;17.47;;;8.67;;
75732;SDS011;73508;47.450;19.128;2024-01-30T12:21:11;13.52;;;7.43;;
75732;SDS011;73508;47.450;19.128;2024-01-30T12:23:37;16.13;;;7.83;;
75732;SDS011;73508;47.450;19.128;2024-01-30T12:26:02;15.43;;;6.73;;
75732;SDS011;73508;47.450;19.128;2024-01-30T12:28:32;16.52;;;7.50;;
75732;SDS011;73508;47.450;19.128;2024-01-30T12:31:04;15.07;;;6.12;;
75732;SDS011;73508;47.450;19.128;2024-01-30T12:33:30;14.87;;;6.77;;
75732;SDS011;73508;47.450;19.128;2024-01-30T12:35:56;13.20;;;6.30;;
75732;SDS011;73508;47.450;19.128;2024-01-30T12:38:22;12.05;;;6.22;;
75732;SDS011;73508;47.450;19.128;2024-01-30T12:40:49;13.70;;;6.30;;
75732;SDS011;73508;47.450;19.128;2024-01-30T12:43:14;12.00;;;5.68;;
75732;SDS011;73508;47.450;19.128;2024-01-30T12:45:41;9.27;;;4.93;;
75732;SDS011;73508;47.450;19.128;2024-01-30T12:48:06;11.80;;;6.50;;
75732;SDS011;73508;47.450;19.128;2024-01-30T12:50:32;10.03;;;5.23;;
75732;SDS011;73508;47.450;19.128;2024-01-30T12:52:57;10.93;;;5.75;;
75732;SDS011;73508;47.450;19.128;2024-01-30T12:55:23;11.90;;;5.10;;
75732;SDS011;73508;47.450;19.128;2024-01-30T12:57:49;10.37;;;5.53;;
75732;SDS011;73508;47.450;19.128;2024-01-30T13:00:15;10.18;;;5.22;;
75732;SDS011;73508;47.450;19.128;2024-01-30T13:02:42;11.98;;;5.80;;
75732;SDS011;73508;47.450;19.128;2024-01-30T13:05:10;9.50;;;5.28;;
75732;SDS011;73508;47.450;19.128;2024-01-30T13:07:35;12.47;;;5.40;;
75732;SDS011;73508;47.450;19.128;2024-01-30T13:10:00;10.10;;;5.50;;
75732;SDS011;73508;47.450;19.128;2024-01-30T13:12:27;13.27;;;5.47;;
75732;SDS011;73508;47.450;19.128;2024-01-30T13:14:53;13.00;;;6.15;;
75732;SDS011;73508;47.450;19.128;2024-01-30T13:17:19;14.80;;;6.60;;
75732;SDS011;73508;47.450;19.128;2024-01-30T13:19:44;12.57;;;6.17;;
75732;SDS011;73508;47.450;19.128;2024-01-30T13:22:09;11.70;;;6.07;;
75732;SDS011;73508;47.450;19.128;2024-01-30T13:24:35;13.37;;;6.83;;
75732;SDS011;73508;47.450;19.128;2024-01-30T13:27:00;12.33;;;5.60;;
75732;SDS011;73508;47.450;19.128;2024-01-30T13:29:25;14.23;;;6.47;;
75732;SDS011;73508;47.450;19.128;2024-01-30T13:31:51;14.97;;;6.73;;
75732;SDS011;73508;47.450;19.128;2024-01-30T13:34:16;12.63;;;6.40;;
75732;SDS011;73508;47.450;19.128;2024-01-30T13:36:42;15.07;;;6.73;;
75732;SDS011;73508;47.450;19.128;2024-01-30T13:39:08;12.63;;;6.35;;
75732;SDS011;73508;47.450;19.128;2024-01-30T13:41:35;12.40;;;6.18;;
75732;SDS011;73508;47.450;19.128;2024-01-30T13:44:01;10.30;;;5.63;;
75732;SDS011;73508;47.450;19.128;2024-01-30T13:46:28;10.93;;;5.93;;
75732;SDS011;73508;47.450;19.128;2024-01-30T13:48:54;14.10;;;6.70;;
75732;SDS011;73508;47.450;19.128;2024-01-30T13:51:19;10.23;;;5.20;;
75732;SDS011;73508;47.450;19.128;2024-01-30T13:53:44;12.10;;;5.87;;
75732;SDS011;73508;47.450;19.128;2024-01-30T13:56:10;13.37;;;6.47;;
75732;SDS011;73508;47.450;19.128;2024-01-30T13:58:35;13.37;;;6.17;;
75732;SDS011;73508;47.450;19.128;2024-01-30T14:01:01;10.65;;;5.75;;
75732;SDS011;73508;47.450;19.128;2024-01-30T14:03:27;10.53;;;5.70;;
75732;SDS011;73508;47.450;19.128;2024-01-30T14:05:52;13.77;;;5.93;;
75732;SDS011;73508;47.450;19.128;2024-01-30T14:08:17;11.57;;;5.57;;
75732;SDS011;73508;47.450;19.128;2024-01-30T14:10:43;11.77;;;6.13;;
75732;SDS011;73508;47.450;19.128;2024-01-30T14:13:09;13.05;;;5.55;;